Logan Township, New Jersey
Current Conditions -  °F | °C
As of 1:54 PM on Saturday 25 Oct 2014 (Local Time) from KPHL Reporting Station
Few Clouds Few Clouds  
Wind Chill: 69°   Ceiling: Unl
Heat Index: 69°   Visibility: 10mi
Dew Point: 44°   Wind: 17mph
Humidity: 40%   Direction: 240°WSW
Pressure: 29.78"   Gusts: 28mph
Location:  39.757°N, 75.3338°W
Report Text: KPHL 251754Z 24015G24KT 10SM FEW050 21/07 A2978 RMK AO2 SLP085 T02060067 10206 20094 58038
Loading
Personal Weather Stations






























Interactive Weather Map
Tropical Storm Tracking
New forecast layout! Learn more

10-Day Weather Forecast

Advertisements
Track Severe Weather on mobile